Time;durP1;ratioP1;P1;durP2;ratioP2;P2;SDS_P1;SDS_P2;PMS_P1;PMS_P2;Temp;Humidity;BMP_temperature;BMP_pressure;BME280_temperature;BME280_humidity;BME280_pressure;Samples;Min_cycle;Max_cycle;Signal;HPM_P1;HPM_P2
2021/08/01 00:01:24;;;;;;;;;;;;;;;23.77;54.98;99243.84;4373894;32;35079;-75
2021/08/01 00:03:52;;;;;;;;;;;;;;;23.66;55.41;99245.78;4390538;32;35460;-75
2021/08/01 00:06:25;;;;;;;;;;;;;;;23.31;56.71;99248.56;4386278;32;33013;-75
2021/08/01 00:08:53;;;;;;;;;;;;;;;23.45;56.98;99241.81;4385330;32;35063;-75
2021/08/01 00:11:21;;;;;;;;;;;;;;;23.57;56.20;99239.91;4389474;32;37666;-75
2021/08/01 00:13:48;;;;;;;;;;;;;;;23.49;57.01;99234.03;4379066;32;34570;-75
2021/08/01 00:16:16;;;;;;;;;;;;;;;23.56;56.54;99229.25;4387065;32;32390;-75
2021/08/01 00:18:43;;;;;;;;;;;;;;;23.39;57.16;99234.62;4376895;32;32870;-75
2021/08/01 00:21:11;;;;;;;;;;;;;;;23.49;56.70;99229.41;4385448;32;34239;-76
2021/08/01 00:23:38;;;;;;;;;;;;;;;23.52;56.50;99228.94;4399198;32;33659;-75
2021/08/01 00:26:06;;;;;;;;;;;;;;;23.52;55.79;99228.12;4403337;32;33582;-75
2021/08/01 00:28:33;;;;;;;;;;;;;;;23.58;55.66;99229.88;4392705;32;32939;-75
2021/08/01 00:31:01;;;;;;;;;;;;;;;23.45;56.24;99238.28;4384471;32;35574;-76
2021/08/01 00:33:29;;;;;;;;;;;;;;;23.47;55.88;99223.41;4384823;32;35088;-76
2021/08/01 00:35:57;;;;;;;;;;;;;;;23.44;55.99;99231.19;4384656;32;34041;-75
2021/08/01 00:38:25;;;;;;;;;;;;;;;23.30;56.48;99225.22;4382808;32;34060;-75
2021/08/01 00:40:52;;;;;;;;;;;;;;;23.32;56.90;99227.69;4398476;32;34533;-74
2021/08/01 00:43:20;;;;;;;;;;;;;;;23.09;57.46;99214.94;4383717;32;34020;-75
2021/08/01 00:45:48;;;;;;;;;;;;;;;22.49;59.12;99210.84;4396800;32;34026;-75
2021/08/01 00:48:16;;;;;;;;;;;;;;;23.03;58.29;99212.38;4384090;32;35055;-75
2021/08/01 00:50:44;;;;;;;;;;;;;;;23.28;57.62;99208.34;4398925;32;35388;-73
2021/08/01 00:53:12;;;;;;;;;;;;;;;23.29;58.16;99209.97;4406555;32;33986;-75
2021/08/01 00:55:40;;;;;;;;;;;;;;;23.16;58.70;99204.84;4386117;32;33595;-76
2021/08/01 00:58:09;;;;;;;;;;;;;;;23.44;57.05;99215.75;4384721;32;34948;-75
2021/08/01 01:03:42;;;;;;;;;;;;;;;23.16;57.65;99247.41;4385136;32;36036;-75
2021/08/01 01:06:19;;;;;;;;;;;;;;;22.78;59.37;99318.41;4401294;32;33070;-75
2021/08/01 01:09:07;;;;;;;;;;;;;;;22.21;61.10;99343.44;4400223;32;34229;-75
2021/08/01 01:11:38;;;;;;;;;;;;;;;21.90;63.02;99367.19;4390409;32;34418;-75
2021/08/01 01:14:09;;;;;;;;;;;;;;;22.33;61.67;99359.72;4384492;32;34857;-75
2021/08/01 01:16:42;;;;;;;;;;;;;;;22.37;61.72;99360.94;4384950;32;32724;-75
2021/08/01 01:19:11;;;;;;;;;;;;;;;22.12;62.14;99388.16;4386728;32;34254;-74
2021/08/01 01:21:51;;;;;;;;;;;;;;;22.26;61.89;99410.47;4389935;32;34742;-74
2021/08/01 01:24:24;;;;;;;;;;;;;;;22.18;61.88;99432.47;4400692;32;34185;-74
2021/08/01 01:27:13;;;;;;;;;;;;;;;22.41;63.95;99440.75;4389568;32;33094;-76
2021/08/01 01:29:49;;;;;;;;;;;;;;;22.72;66.44;99395.25;4385561;32;34378;-76
2021/08/01 01:32:34;;;;;;;;;;;;;;;22.71;67.26;99403.62;4401264;32;34859;-76
2021/08/01 01:35:02;;;;;;;;;;;;;;;22.51;68.87;99398.50;4387095;32;34216;-76
2021/08/01 01:37:30;;;;;;;;;;;;;;;22.81;67.08;99368.63;4373820;32;32535;-76
2021/08/01 01:39:58;;;;;;;;;;;;;;;22.54;69.55;99330.25;4387867;32;34770;-76
2021/08/01 01:42:27;;;;;;;;;;;;;;;22.19;71.09;99320.31;4387556;32;35493;-77
2021/08/01 01:44:56;;;;;;;;;;;;;;;22.45;70.64;99328.91;4382669;32;35894;-75
2021/08/01 01:47:24;;;;;;;;;;;;;;;22.76;69.19;99322.41;4389546;32;31894;-76
2021/08/01 01:49:54;;;;;;;;;;;;;;;22.82;69.21;99322.28;4373745;32;34964;-76
2021/08/01 01:52:22;;;;;;;;;;;;;;;22.46;70.86;99333.28;4386853;32;35236;-76
2021/08/01 01:54:50;;;;;;;;;;;;;;;22.52;70.80;99321.53;4386680;32;34106;-75
2021/08/01 01:57:17;;;;;;;;;;;;;;;22.68;70.50;99312.72;4387797;32;34886;-76
2021/08/01 01:59:46;;;;;;;;;;;;;;;22.52;71.18;99323.41;4381135;32;34762;-76
2021/08/01 02:02:15;;;;;;;;;;;;;;;22.62;70.94;99329.91;4384549;32;34063;-76
2021/08/01 02:04:43;;;;;;;;;;;;;;;22.71;70.72;99314.13;4404030;32;35431;-76
2021/08/01 02:07:13;;;;;;;;;;;;;;;22.93;69.69;99297.06;4374048;32;35275;-76
2021/08/01 02:09:51;;;;;;;;;;;;;;;23.00;69.41;99281.50;4390331;32;33338;-75
2021/08/01 02:12:24;;;;;;;;;;;;;;;22.56;71.83;99264.94;4385287;32;35083;-75
2021/08/01 02:14:58;;;;;;;;;;;;;;;22.91;70.21;99247.63;4387302;32;34589;-75
2021/08/01 02:17:52;;;;;;;;;;;;;;;22.88;70.08;99229.13;4397964;32;32853;-75
2021/08/01 02:20:21;;;;;;;;;;;;;;;23.09;69.00;99214.94;4388563;32;35288;-76
2021/08/01 02:22:50;;;;;;;;;;;;;;;22.44;71.98;99204.44;4383672;32;34980;-76
2021/08/01 02:25:19;;;;;;;;;;;;;;;22.80;70.46;99198.81;4394790;32;34709;-75
2021/08/01 02:27:49;;;;;;;;;;;;;;;22.56;71.19;99202.59;4381825;32;32794;-76
2021/08/01 02:30:17;;;;;;;;;;;;;;;22.30;72.64;99211.94;4383869;32;35302;-76
2021/08/01 02:32:46;;;;;;;;;;;;;;;22.32;72.64;99209.84;4388664;32;35750;-75
2021/08/01 02:35:14;;;;;;;;;;;;;;;22.18;73.04;99199.44;4387959;32;34273;-75
2021/08/01 02:37:43;;;;;;;;;;;;;;;21.88;73.89;99191.34;4387522;32;34038;-76
2021/08/01 02:40:13;;;;;;;;;;;;;;;22.47;71.91;99201.28;4373489;32;34730;-76
2021/08/01 02:42:40;;;;;;;;;;;;;;;22.06;73.10;99204.81;4386157;32;35423;-76
2021/08/01 02:45:08;;;;;;;;;;;;;;;22.08;73.38;99202.72;4400822;32;34515;-76
2021/08/01 02:47:35;;;;;;;;;;;;;;;22.40;72.27;99192.41;4381101;32;33135;-75
2021/08/01 02:50:03;;;;;;;;;;;;;;;22.89;69.75;99173.81;4388892;32;34105;-76
2021/08/01 02:52:34;;;;;;;;;;;;;;;23.07;69.06;99170.97;4375293;32;36445;-76
2021/08/01 02:55:01;;;;;;;;;;;;;;;23.27;68.06;99168.69;4390629;32;35088;-77
2021/08/01 02:57:30;;;;;;;;;;;;;;;23.17;68.44;99175.78;4389107;32;34122;-76
2021/08/01 03:00:00;;;;;;;;;;;;;;;23.09;68.82;99163.41;4392221;32;34262;-76
2021/08/01 03:02:28;;;;;;;;;;;;;;;23.08;69.01;99159.03;4393757;32;34145;-76
2021/08/01 03:04:56;;;;;;;;;;;;;;;23.16;69.17;99152.44;4394299;32;35433;-75
2021/08/01 03:07:24;;;;;;;;;;;;;;;23.12;69.32;99157.47;4401321;32;31940;-76
2021/08/01 03:09:53;;;;;;;;;;;;;;;22.87;70.37;99167.81;4401310;32;34855;-76
2021/08/01 03:12:21;;;;;;;;;;;;;;;22.62;71.30;99167.22;4372275;32;36034;-76
2021/08/01 03:14:49;;;;;;;;;;;;;;;21.89;74.52;99174.03;4387652;32;34382;-77
2021/08/01 03:17:16;;;;;;;;;;;;;;;21.98;74.10;99172.66;4385225;32;33600;-75
2021/08/01 03:19:44;;;;;;;;;;;;;;;21.28;77.27;99172.56;4399787;32;33520;-75
2021/08/01 03:22:12;;;;;;;;;;;;;;;21.03;78.83;99177.25;4398110;32;34893;-75
2021/08/01 03:24:40;;;;;;;;;;;;;;;20.47;81.08;99181.94;4403107;32;34721;-76
2021/08/01 03:27:08;;;;;;;;;;;;;;;20.93;79.21;99182.34;4405674;32;33061;-74
2021/08/01 03:29:36;;;;;;;;;;;;;;;20.90;79.22;99180.09;4387335;32;32785;-75
2021/08/01 03:32:04;;;;;;;;;;;;;;;20.96;79.38;99173.81;4400876;32;35223;-75
2021/08/01 03:34:32;;;;;;;;;;;;;;;20.65;80.77;99171.19;4383419;32;35620;-74
2021/08/01 03:36:59;;;;;;;;;;;;;;;20.07;84.12;99160.91;4397085;32;32673;-74
2021/08/01 03:39:34;;;;;;;;;;;;;;;20.21;83.93;99157.88;4376232;32;34860;-76
2021/08/01 03:42:02;;;;;;;;;;;;;;;20.38;83.04;99150.84;4372300;32;34305;-74
2021/08/01 03:44:30;;;;;;;;;;;;;;;20.91;80.96;99150.16;4386044;32;34906;-74
2021/08/01 03:46:58;;;;;;;;;;;;;;;20.63;81.72;99165.19;4400075;32;34494;-73
2021/08/01 03:49:26;;;;;;;;;;;;;;;21.35;78.64;99173.31;4390361;32;34253;-74
2021/08/01 03:51:53;;;;;;;;;;;;;;;21.97;75.71;99179.13;4392907;32;34441;-75
2021/08/01 03:54:21;;;;;;;;;;;;;;;22.36;73.70;99211.00;4385273;32;35188;-74
2021/08/01 03:56:49;;;;;;;;;;;;;;;22.47;73.30;99236.53;4386081;32;33044;-74
2021/08/01 03:59:16;;;;;;;;;;;;;;;22.24;74.21;99241.84;4401059;32;33866;-74
2021/08/01 04:01:43;;;;;;;;;;;;;;;22.38;73.67;99211.59;4381577;32;35201;-74
2021/08/01 04:04:11;;;;;;;;;;;;;;;21.95;76.42;99181.25;4388605;32;34649;-75
2021/08/01 04:06:39;;;;;;;;;;;;;;;22.61;73.61;99176.41;4382428;32;33271;-75
2021/08/01 04:09:06;;;;;;;;;;;;;;;22.47;73.91;99188.53;4397968;32;34625;-74
2021/08/01 04:11:34;;;;;;;;;;;;;;;22.71;73.04;99183.94;4378672;32;35491;-73
2021/08/01 04:14:01;;;;;;;;;;;;;;;21.36;78.48;99164.16;4385899;32;34643;-75
2021/08/01 04:16:29;;;;;;;;;;;;;;;21.45;78.80;99136.53;4399752;32;33147;-74
2021/08/01 04:18:57;;;;;;;;;;;;;;;22.07;76.23;99141.47;4387626;32;35727;-74
2021/08/01 04:21:24;;;;;;;;;;;;;;;21.86;77.00;99144.72;4396673;32;36372;-74
2021/08/01 04:23:51;;;;;;;;;;;;;;;21.82;77.31;99135.38;4389259;32;34352;-74
2021/08/01 04:26:19;;;;;;;;;;;;;;;21.99;76.70;99130.16;4407941;32;34302;-74
2021/08/01 04:28:47;;;;;;;;;;;;;;;22.09;76.39;99111.44;4386718;32;34243;-73
2021/08/01 04:31:15;;;;;;;;;;;;;;;21.58;77.79;99090.34;4375337;32;36219;-73
2021/08/01 04:33:43;;;;;;;;;;;;;;;21.75;77.02;99071.56;4385159;32;35030;-76
2021/08/01 04:36:10;;;;;;;;;;;;;;;22.15;75.49;99057.13;4399700;32;33247;-75
2021/08/01 04:38:37;;;;;;;;;;;;;;;22.14;75.22;99055.47;4394939;32;34919;-74
2021/08/01 04:41:05;;;;;;;;;;;;;;;22.37;74.85;99041.09;4391912;32;36011;-75
2021/08/01 04:43:32;;;;;;;;;;;;;;;21.62;77.11;99023.03;4404330;32;34562;-73
2021/08/01 04:46:00;;;;;;;;;;;;;;;21.94;75.94;99021.66;4400682;32;33452;-74
2021/08/01 04:48:29;;;;;;;;;;;;;;;21.91;76.33;99047.34;4387144;32;34311;-74
2021/08/01 04:50:56;;;;;;;;;;;;;;;21.28;78.70;99051.66;4385045;32;35571;-74
2021/08/01 04:53:24;;;;;;;;;;;;;;;21.84;76.27;99068.31;4391577;32;34742;-75
2021/08/01 04:55:51;;;;;;;;;;;;;;;22.63;72.98;99079.37;4403893;32;33276;-74
2021/08/01 04:58:19;;;;;;;;;;;;;;;22.89;72.25;99094.31;4390903;32;34002;-74
2021/08/01 05:00:46;;;;;;;;;;;;;;;23.26;70.71;99092.94;4398605;32;34574;-74
2021/08/01 05:03:14;;;;;;;;;;;;;;;22.85;72.26;99110.22;4392579;32;34555;-76
2021/08/01 05:05:41;;;;;;;;;;;;;;;23.15;71.31;99112.78;4396538;32;33977;-75
2021/08/01 05:08:09;;;;;;;;;;;;;;;22.75;73.14;99111.91;4390400;32;34703;-76
2021/08/01 05:10:37;;;;;;;;;;;;;;;22.80;73.04;99102.00;4370697;32;967060;-75
2021/08/01 05:13:04;;;;;;;;;;;;;;;23.04;72.14;99095.44;4383018;32;35111;-76
2021/08/01 05:15:32;;;;;;;;;;;;;;;23.33;71.33;99090.91;4384072;32;33376;-75
2021/08/01 05:18:01;;;;;;;;;;;;;;;22.94;72.76;99081.66;4373407;32;33943;-76
2021/08/01 05:20:30;;;;;;;;;;;;;;;23.43;70.86;99072.91;4389300;32;34486;-75
2021/08/01 05:22:57;;;;;;;;;;;;;;;23.72;69.96;99065.53;4396997;32;34213;-76
2021/08/01 05:25:25;;;;;;;;;;;;;;;24.00;68.66;99061.72;4384811;32;33458;-76
2021/08/01 05:27:52;;;;;;;;;;;;;;;24.07;68.54;99046.06;4400944;32;34150;-75
2021/08/01 05:30:19;;;;;;;;;;;;;;;23.99;69.14;99041.03;4384928;32;35855;-75
2021/08/01 05:32:47;;;;;;;;;;;;;;;23.34;71.63;99057.25;4385796;32;34160;-74
2021/08/01 05:35:15;;;;;;;;;;;;;;;23.23;72.88;99050.81;4386273;32;33565;-74
2021/08/01 05:37:42;;;;;;;;;;;;;;;23.26;73.25;99044.91;4402946;32;34242;-74
2021/08/01 05:40:11;;;;;;;;;;;;;;;22.62;74.59;99049.78;4391166;32;35594;-74
2021/08/01 05:42:38;;;;;;;;;;;;;;;22.87;74.79;99056.59;4389296;32;34357;-74
2021/08/01 05:45:07;;;;;;;;;;;;;;;23.05;72.63;99056.41;4403986;32;33311;-75
2021/08/01 05:47:40;;;;;;;;;;;;;;;23.77;71.55;99041.19;4373752;32;34082;-74
2021/08/01 05:50:09;;;;;;;;;;;;;;;23.09;72.64;99052.12;4404405;32;34353;-74
2021/08/01 05:52:36;;;;;;;;;;;;;;;22.90;74.27;99039.00;4399500;32;34609;-74
2021/08/01 05:55:05;;;;;;;;;;;;;;;22.87;73.66;99026.75;4397817;32;33346;-74
2021/08/01 05:57:32;;;;;;;;;;;;;;;22.55;74.18;99036.38;4398849;32;34161;-74
2021/08/01 06:00:00;;;;;;;;;;;;;;;22.86;74.02;99027.00;4397696;32;34879;-73
2021/08/01 06:02:27;;;;;;;;;;;;;;;22.91;73.09;99025.19;4385200;32;34752;-73
2021/08/01 06:04:55;;;;;;;;;;;;;;;22.93;73.69;99024.97;4399329;32;33089;-74
2021/08/01 06:07:23;;;;;;;;;;;;;;;22.93;73.65;99024.97;4386463;32;34287;-75
2021/08/01 06:09:50;;;;;;;;;;;;;;;23.35;71.82;99031.75;4384866;32;34843;-73
2021/08/01 06:12:18;;;;;;;;;;;;;;;23.30;71.94;99031.69;4386400;32;34987;-76
2021/08/01 06:14:49;;;;;;;;;;;;;;;23.81;71.88;99033.13;4410545;32;34572;-76
2021/08/01 06:17:17;;;;;;;;;;;;;;;23.76;71.11;99025.97;4387345;32;33727;-74
2021/08/01 06:19:45;;;;;;;;;;;;;;;23.82;71.15;99023.88;4407836;32;36391;-76
2021/08/01 06:22:15;;;;;;;;;;;;;;;23.70;71.94;99016.09;4399286;32;34521;-76
2021/08/01 06:24:42;;;;;;;;;;;;;;;24.19;69.63;99010.66;4386540;32;32686;-75
2021/08/01 06:27:10;;;;;;;;;;;;;;;23.62;68.50;98995.59;4390899;32;34658;-72
2021/08/01 06:29:38;;;;;;;;;;;;;;;23.82;70.45;98985.84;4372342;32;36464;-73
2021/08/01 06:32:06;;;;;;;;;;;;;;;23.73;69.32;98995.50;4399872;32;34484;-75
2021/08/01 06:34:33;;;;;;;;;;;;;;;23.89;69.08;98991.97;4388520;32;33663;-74
2021/08/01 06:37:01;;;;;;;;;;;;;;;23.90;69.44;98981.94;4386456;32;34422;-74
2021/08/01 06:39:28;;;;;;;;;;;;;;;23.69;69.03;98984.56;4373780;32;36618;-74
2021/08/01 06:41:56;;;;;;;;;;;;;;;23.51;69.49;98992.94;4357747;32;35775;-75
2021/08/01 06:44:23;;;;;;;;;;;;;;;23.61;69.18;98991.25;4400274;32;32742;-75
2021/08/01 06:46:50;;;;;;;;;;;;;;;23.26;69.98;98984.38;4385281;32;33206;-76
2021/08/01 06:49:18;;;;;;;;;;;;;;;24.24;67.93;99003.37;4384732;32;35169;-75
2021/08/01 06:52:05;;;;;;;;;;;;;;;24.07;67.93;99027.03;4386984;32;35077;-76
2021/08/01 06:54:33;;;;;;;;;;;;;;;24.09;68.10;99040.41;4399298;32;33264;-76
2021/08/01 06:57:00;;;;;;;;;;;;;;;24.12;67.72;99020.84;4373188;32;34381;-75
2021/08/01 06:59:28;;;;;;;;;;;;;;;24.13;67.73;99027.94;4384404;32;36271;-76
2021/08/01 07:01:56;;;;;;;;;;;;;;;24.60;66.36;99023.75;4396864;32;34711;-76
2021/08/01 07:04:24;;;;;;;;;;;;;;;24.43;67.25;99007.44;4399597;32;33058;-76
2021/08/01 07:06:51;;;;;;;;;;;;;;;24.90;65.86;99035.81;4384686;32;34675;-75
2021/08/01 07:09:19;;;;;;;;;;;;;;;24.81;65.42;99044.69;4397597;32;36407;-75
2021/08/01 07:11:46;;;;;;;;;;;;;;;24.26;66.18;99036.56;4384962;32;35068;-76
2021/08/01 07:14:13;;;;;;;;;;;;;;;24.73;64.92;99034.25;4385407;32;34031;-76
2021/08/01 07:16:42;;;;;;;;;;;;;;;24.27;67.09;99051.00;4385152;32;33635;-76
2021/08/01 07:19:10;;;;;;;;;;;;;;;24.80;65.33;99079.25;4384993;32;34661;-76
2021/08/01 07:21:38;;;;;;;;;;;;;;;25.34;65.14;99131.91;4373136;32;34922;-76
2021/08/01 07:24:05;;;;;;;;;;;;;;;25.05;64.94;99131.28;4384405;32;32232;-75
2021/08/01 07:26:33;;;;;;;;;;;;;;;24.32;68.07;99138.91;4385646;32;34056;-75
2021/08/01 07:29:00;;;;;;;;;;;;;;;24.20;70.11;99137.31;4397717;32;33686;-77
2021/08/01 07:31:28;;;;;;;;;;;;;;;22.42;77.43;99082.72;4382241;32;34184;-73
2021/08/01 07:33:57;;;;;;;;;;;;;;;22.13;80.24;99021.31;4385287;32;33339;-75
2021/08/01 07:36:24;;;;;;;;;;;;;;;22.13;80.83;98996.94;4397097;32;34475;-73
2021/08/01 07:38:52;;;;;;;;;;;;;;;22.67;78.59;98995.69;4384973;32;35608;-74
2021/08/01 07:41:20;;;;;;;;;;;;;;;22.88;76.88;99003.16;4372584;32;34877;-73
2021/08/01 07:43:50;;;;;;;;;;;;;;;23.37;75.31;99011.44;4384945;32;34039;-74
2021/08/01 07:46:18;;;;;;;;;;;;;;;23.51;74.74;99028.25;4384996;32;33300;-73
2021/08/01 07:48:46;;;;;;;;;;;;;;;24.20;72.15;99051.16;4386635;32;33956;-75
2021/08/01 07:51:14;;;;;;;;;;;;;;;24.09;73.94;99032.25;4383683;32;34536;-71
2021/08/01 07:53:42;;;;;;;;;;;;;;;24.54;73.80;99041.88;4384906;32;33140;-74
2021/08/01 07:56:09;;;;;;;;;;;;;;;24.49;75.52;99052.69;4397191;32;34112;-74
2021/08/01 07:58:36;;;;;;;;;;;;;;;24.00;77.52;99050.84;4372854;32;35930;-74
2021/08/01 08:01:04;;;;;;;;;;;;;;;24.30;74.08;99056.75;4397507;32;33971;-74
2021/08/01 08:03:33;;;;;;;;;;;;;;;23.17;78.38;99068.06;4372097;32;33276;-74
2021/08/01 08:06:05;;;;;;;;;;;;;;;23.50;77.61;99045.63;4399053;32;33523;-73
2021/08/01 08:08:33;;;;;;;;;;;;;;;23.49;77.66;99035.81;4374678;32;36374;-73
2021/08/01 08:11:01;;;;;;;;;;;;;;;23.95;78.28;99023.59;4373609;32;35276;-73
2021/08/01 08:13:28;;;;;;;;;;;;;;;24.28;76.49;99015.38;4382490;32;34330;-73
2021/08/01 08:15:57;;;;;;;;;;;;;;;23.46;77.66;99025.44;4386031;32;34453;-73
2021/08/01 08:18:24;;;;;;;;;;;;;;;23.87;78.05;99007.72;4384199;32;35304;-73
2021/08/01 08:20:52;;;;;;;;;;;;;;;24.09;76.23;99003.16;4383650;32;35384;-73
2021/08/01 08:23:20;;;;;;;;;;;;;;;23.77;75.52;99002.09;4372904;32;33818;-73
2021/08/01 08:25:47;;;;;;;;;;;;;;;23.36;75.58;99006.25;4359431;32;35577;-74
2021/08/01 08:28:15;;;;;;;;;;;;;;;23.25;74.75;98999.00;4371106;32;35637;-74
2021/08/01 08:30:43;;;;;;;;;;;;;;;23.27;75.51;98975.16;4383887;32;35504;-73
2021/08/01 08:33:11;;;;;;;;;;;;;;;23.20;76.60;98945.47;4384460;32;33661;-74
2021/08/01 08:35:40;;;;;;;;;;;;;;;23.15;75.95;98920.97;4397783;32;34132;-73
2021/08/01 08:38:07;;;;;;;;;;;;;;;23.71;74.80;98907.22;4394968;32;35284;-74
2021/08/01 08:40:38;;;;;;;;;;;;;;;23.92;74.32;98914.59;4391836;32;34744;-73
2021/08/01 08:43:07;;;;;;;;;;;;;;;24.12;74.83;98906.72;4406554;32;32926;-75
2021/08/01 08:45:35;;;;;;;;;;;;;;;24.15;74.73;98923.34;4384273;32;34031;-74
2021/08/01 08:48:03;;;;;;;;;;;;;;;24.16;74.98;98910.56;4390667;26;34759;-74
2021/08/01 08:50:32;;;;;;;;;;;;;;;24.47;72.54;98891.66;4430386;32;34113;-74
2021/08/01 08:53:02;;;;;;;;;;;;;;;24.69;72.15;98878.06;4421798;32;32628;-74
2021/08/01 08:55:30;;;;;;;;;;;;;;;24.53;72.70;98877.03;4420028;32;33738;-75
2021/08/01 08:58:00;;;;;;;;;;;;;;;24.62;72.06;98871.97;4419289;32;35699;-74
2021/08/01 09:00:29;;;;;;;;;;;;;;;25.23;70.29;98866.06;4422234;32;34698;-75
2021/08/01 09:02:56;;;;;;;;;;;;;;;24.77;70.63;98878.44;4422269;32;33719;-74
2021/08/01 09:05:25;;;;;;;;;;;;;;;25.29;70.26;98878.66;4397043;32;34936;-74
2021/08/01 09:07:53;;;;;;;;;;;;;;;25.34;69.22;98886.84;4416120;32;35357;-74
2021/08/01 09:10:21;;;;;;;;;;;;;;;25.26;69.54;98890.88;4401617;32;34639;-73
2021/08/01 09:12:50;;;;;;;;;;;;;;;25.18;68.74;98893.22;4414873;32;33848;-74
2021/08/01 09:15:27;;;;;;;;;;;;;;;25.46;68.18;98899.19;4429211;32;34604;-74
2021/08/01 09:17:55;;;;;;;;;;;;;;;25.72;67.46;98886.56;4404147;32;36768;-76
2021/08/01 09:20:30;;;;;;;;;;;;;;;25.89;64.79;98879.09;4406021;32;34631;-74
2021/08/01 09:23:01;;;;;;;;;;;;;;;25.90;66.66;98881.56;4424833;32;33198;-74
2021/08/01 09:25:31;;;;;;;;;;;;;;;26.27;64.16;98889.63;4440512;32;34546;-74
2021/08/01 09:28:04;;;;;;;;;;;;;;;26.39;63.70;98880.13;4423051;32;35599;-76
2021/08/01 09:30:42;;;;;;;;;;;;;;;26.35;62.71;98870.03;4414427;32;34236;-73
2021/08/01 09:33:09;;;;;;;;;;;;;;;26.27;64.32;98890.47;4429372;32;33877;-74
2021/08/01 09:35:38;;;;;;;;;;;;;;;26.82;62.77;98887.94;4417959;32;34168;-75
2021/08/01 09:38:05;;;;;;;;;;;;;;;27.13;62.84;98886.06;4418489;32;35860;-74
2021/08/01 09:40:35;;;;;;;;;;;;;;;27.28;59.09;98884.19;4430239;32;34987;-74
2021/08/01 09:43:08;;;;;;;;;;;;;;;27.21;59.59;98872.72;4416318;32;35592;-73
2021/08/01 09:45:36;;;;;;;;;;;;;;;27.44;61.07;98883.91;4405488;32;32915;-74
2021/08/01 09:48:15;;;;;;;;;;;;;;;27.74;60.00;98883.06;4432413;32;35931;-74
2021/08/01 09:50:59;;;;;;;;;;;;;;;27.45;59.30;98890.16;4428012;32;35375;-75
2021/08/01 09:53:26;;;;;;;;;;;;;;;27.47;60.76;98894.28;4426112;32;33176;-73
2021/08/01 09:56:13;;;;;;;;;;;;;;;27.76;58.93;98881.69;4419046;32;36080;-74
2021/08/01 09:58:41;;;;;;;;;;;;;;;27.18;59.67;98886.88;4429960;32;33419;-74
2021/08/01 10:01:09;;;;;;;;;;;;;;;27.16;60.23;98885.53;4431767;32;34286;-74
2021/08/01 10:03:38;;;;;;;;;;;;;;;28.04;58.79;98889.28;4416366;32;33666;-74
2021/08/01 10:06:06;;;;;;;;;;;;;;;27.96;59.03;98897.25;4402190;32;35294;-75
2021/08/01 10:08:36;;;;;;;;;;;;;;;28.41;56.68;98894.38;4416930;32;35477;-76
2021/08/01 10:11:11;;;;;;;;;;;;;;;28.50;56.67;98866.13;4445290;32;33853;-75
2021/08/01 10:13:40;;;;;;;;;;;;;;;28.33;56.83;98862.09;4428182;32;34006;-75
2021/08/01 10:16:09;;;;;;;;;;;;;;;28.19;57.26;98863.78;4403932;32;34928;-74
2021/08/01 10:18:37;;;;;;;;;;;;;;;28.38;56.98;98841.03;4432057;32;34035;-74
2021/08/01 10:21:08;;;;;;;;;;;;;;;28.55;55.80;98833.28;4416498;32;33660;-76
2021/08/01 10:23:47;;;;;;;;;;;;;;;28.69;55.58;98825.25;4418652;32;32823;-75
2021/08/01 10:26:15;;;;;;;;;;;;;;;28.56;56.04;98820.41;4407740;32;34247;-75
2021/08/01 10:28:53;;;;;;;;;;;;;;;29.14;54.29;98820.28;4433982;32;36053;-74
2021/08/01 10:31:30;;;;;;;;;;;;;;;29.33;55.00;98823.94;4420667;32;34964;-75
2021/08/01 10:34:07;;;;;;;;;;;;;;;29.75;54.31;98810.38;4434738;32;33938;-76
2021/08/01 10:36:40;;;;;;;;;;;;;;;29.73;52.47;98815.31;4416443;32;34613;-75
2021/08/01 10:39:12;;;;;;;;;;;;;;;29.54;53.37;98800.72;4406263;32;34922;-75
2021/08/01 10:41:42;;;;;;;;;;;;;;;29.72;53.16;98804.66;4434260;32;33992;-75
2021/08/01 10:44:10;;;;;;;;;;;;;;;29.67;51.74;98789.09;4419903;32;32945;-77
2021/08/01 10:46:40;;;;;;;;;;;;;;;29.14;51.40;98792.88;4404141;32;33410;-76
2021/08/01 10:49:09;;;;;;;;;;;;;;;29.30;51.89;98785.31;4418309;32;35133;-77
2021/08/01 10:51:37;;;;;;;;;;;;;;;29.41;51.92;98784.94;4430230;32;34482;-77
2021/08/01 10:54:21;;;;;;;;;;;;;;;30.10;50.37;98777.06;4416849;32;32863;-74
2021/08/01 10:57:09;;;;;;;;;;;;;;;29.94;48.83;98777.53;4405427;32;33683;-77
2021/08/01 10:59:43;;;;;;;;;;;;;;;30.63;47.35;98762.06;4434566;32;36281;-76
2021/08/01 11:02:18;;;;;;;;;;;;;;;30.98;46.64;98753.25;4437689;32;34884;-77
2021/08/01 11:04:47;;;;;;;;;;;;;;;30.29;45.55;98750.44;4421134;32;33333;-77
2021/08/01 11:07:26;;;;;;;;;;;;;;;30.87;46.44;98751.78;4415858;32;35780;-77
2021/08/01 11:10:17;;;;;;;;;;;;;;;30.68;46.06;98748.25;4419863;32;35268;-76
2021/08/01 11:12:48;;;;;;;;;;;;;;;31.50;44.16;98750.09;4439245;32;34960;-76
2021/08/01 11:15:18;;;;;;;;;;;;;;;31.81;44.42;98754.72;4424496;32;33699;-77
2021/08/01 11:17:48;;;;;;;;;;;;;;;31.90;43.66;98758.37;4418625;32;34135;-77
2021/08/01 11:20:31;;;;;;;;;;;;;;;32.51;43.13;98767.00;4426415;32;35321;-78
2021/08/01 11:23:01;;;;;;;;;;;;;;;31.79;43.79;98765.22;4441023;32;33526;-76
2021/08/01 11:25:32;;;;;;;;;;;;;;;31.91;43.41;98760.00;4412238;32;33169;-76
2021/08/01 11:28:07;;;;;;;;;;;;;;;31.74;43.83;98764.50;4436328;32;34991;-77
2021/08/01 11:33:32;;;;;;;;;;;;;;;32.03;42.71;98759.50;4431013;32;35530;-76
2021/08/01 11:36:18;;;;;;;;;;;;;;;31.75;43.44;98761.47;4431591;32;33767;-76
2021/08/01 11:38:53;;;;;;;;;;;;;;;32.27;44.01;98766.44;4417208;32;33729;-76
2021/08/01 11:41:35;;;;;;;;;;;;;;;32.62;42.43;98764.78;4424280;32;34280;-77
2021/08/01 11:44:32;;;;;;;;;;;;;;;32.52;42.01;98763.09;4439512;32;34422;-76
2021/08/01 11:47:03;;;;;;;;;;;;;;;32.52;41.93;98754.84;4421417;32;34696;-76
2021/08/01 11:49:44;;;;;;;;;;;;;;;32.82;41.71;98756.91;4415059;32;34650;-77
2021/08/01 11:52:12;;;;;;;;;;;;;;;31.47;42.93;98759.78;4433645;32;35348;-77
2021/08/01 11:54:43;;;;;;;;;;;;;;;31.18;43.91;98762.00;4419567;32;34410;-76
2021/08/01 11:57:15;;;;;;;;;;;;;;;30.82;45.06;98757.34;4416858;32;33733;-76
2021/08/01 11:59:43;;;;;;;;;;;;;;;31.26;44.84;98750.28;4417474;32;34797;-76
2021/08/01 12:02:12;;;;;;;;;;;;;;;30.42;45.63;98746.97;4414947;32;35998;-76
2021/08/01 12:04:54;;;;;;;;;;;;;;;30.75;45.86;98749.50;4424926;32;34686;-77
2021/08/01 12:07:39;;;;;;;;;;;;;;;31.00;45.89;98751.00;4430042;32;32385;-76
2021/08/01 12:10:18;;;;;;;;;;;;;;;30.33;47.10;98761.66;4429918;32;34282;-75
2021/08/01 12:12:56;;;;;;;;;;;;;;;30.53;46.90;98757.50;4402492;32;35104;-76
2021/08/01 12:15:26;;;;;;;;;;;;;;;30.18;47.49;98759.94;4415280;32;35294;-76
2021/08/01 12:17:55;;;;;;;;;;;;;;;30.79;47.09;98761.50;4440029;32;33126;-76
2021/08/01 12:20:37;;;;;;;;;;;;;;;30.24;48.19;98780.72;4417543;32;34908;-75
2021/08/01 12:23:05;;;;;;;;;;;;;;;30.21;49.46;98799.69;4423840;32;36505;-76
2021/08/01 12:25:34;;;;;;;;;;;;;;;30.77;49.29;98799.44;4402623;32;35197;-75
2021/08/01 12:28:02;;;;;;;;;;;;;;;30.92;49.93;98823.94;4417306;32;33919;-76
2021/08/01 12:30:29;;;;;;;;;;;;;;;31.14;49.95;98820.56;4415364;32;33983;-76
2021/08/01 12:32:57;;;;;;;;;;;;;;;30.75;50.89;98807.16;4433502;32;35073;-75
2021/08/01 12:35:30;;;;;;;;;;;;;;;30.22;52.49;98806.81;4438498;32;35051;-76
2021/08/01 12:38:05;;;;;;;;;;;;;;;30.81;52.42;98796.91;4425308;32;33556;-77
2021/08/01 12:40:33;;;;;;;;;;;;;;;31.13;53.40;98802.41;4419252;32;34879;-75
2021/08/01 12:43:08;;;;;;;;;;;;;;;31.09;53.36;98804.97;4429072;32;36080;-74
2021/08/01 12:45:41;;;;;;;;;;;;;;;31.20;55.12;98800.97;4416480;32;35193;-73
2021/08/01 12:48:10;;;;;;;;;;;;;;;31.14;55.26;98793.91;4436150;32;33543;-73
2021/08/01 12:50:43;;;;;;;;;;;;;;;31.21;54.84;98785.28;4404994;32;35093;-73
2021/08/01 12:53:12;;;;;;;;;;;;;;;31.40;55.33;98778.62;4414436;32;37366;-74
2021/08/01 12:55:41;;;;;;;;;;;;;;;31.72;55.81;98758.50;4418258;32;34811;-74
2021/08/01 12:58:09;;;;;;;;;;;;;;;31.51;56.26;98771.00;4414310;32;34558;-74
2021/08/01 13:00:38;;;;;;;;;;;;;;;31.23;54.74;98763.84;4414499;32;32944;-73
2021/08/01 13:03:10;;;;;;;;;;;;;;;30.94;54.39;98747.53;4423046;32;35602;-73
2021/08/01 13:05:38;;;;;;;;;;;;;;;30.78;54.18;98715.13;4416218;32;33822;-73
2021/08/01 13:08:06;;;;;;;;;;;;;;;31.44;55.12;98705.41;4402671;32;33973;-75